Terminal Aerodrome Forecast
Issued by NWS Wilmington, OH

Current Version | Previous Version | Text Only | Print | Product List | Glossary Off
Versions: 1 2 3 4 5 6 7 8 9 10 11 12 13 14 15 16 17 18 19 20

000
FTUS41 KILN 012200 AAA
TAFDAY
TAF AMD
KDAY 012216Z 0122/0218 22012KT P6SM SCT040 BKN250
     FM020000 21009KT P6SM SCT120
     FM020800 21009KT P6SM VCSH BKN035
     FM021000 21008KT P6SM -SHRA VCTS BKN035CB
     FM021400 24010G18KT 3SM -SHRA VCTS BKN035CB OVC150
      TEMPO 0214/0217 2SM -TSRA
     FM021700 26012G20KT P6SM VCSH BKN035=

USA.gov is the U.S. government's official web portal to all federal, state and local government web resources and services.